Time;durP1;ratioP1;P1;durP2;ratioP2;P2;SDS_P1;SDS_P2;PMS_P1;PMS_P2;Temp;Humidity;BMP_temperature;BMP_pressure;BME280_temperature;BME280_humidity;BME280_pressure;Samples;Min_cycle;Max_cycle;Signal;HPM_P1;HPM_P2
2022/08/18 00:00:13;;;;;;;4.30;3.90;;;;;;;17.70;100.00;156968.78;4996634;28;20057;-76
2022/08/18 00:02:41;;;;;;;4.30;3.90;;;;;;;17.85;100.00;157006.22;5001191;28;20438;-77
2022/08/18 00:05:09;;;;;;;4.60;4.20;;;;;;;17.82;100.00;156998.47;4992328;28;20037;-76
2022/08/18 00:07:34;;;;;;;6.35;4.85;;;;;;;17.77;100.00;156984.28;5027445;28;20170;-76
2022/08/18 00:10:01;;;;;;;9.27;5.18;;;;;;;17.77;100.00;156984.28;5023980;28;20610;-76
2022/08/18 00:12:36;;;;;;;5.53;4.95;;;;;;;17.87;100.00;157010.09;5003561;28;20037;-77
2022/08/18 00:15:04;;;;;;;6.22;5.10;;;;;;;17.90;100.00;157019.13;5003428;28;20038;-77
2022/08/18 00:17:32;;;;;;;7.57;5.43;;;;;;;17.86;100.00;157008.81;5001037;28;20057;-77
2022/08/18 00:19:58;;;;;;;7.35;5.22;;;;;;;17.87;100.00;157011.38;5014331;28;20469;-77
2022/08/18 00:22:24;;;;;;;6.95;5.75;;;;;;;17.83;100.00;156999.75;5036631;28;20133;-76
2022/08/18 00:24:53;;;;;;;6.13;5.50;;;;;;;17.86;100.00;157007.53;4981637;28;20136;-77
2022/08/18 00:27:25;;;;;;;6.95;6.15;;;;;;;17.88;100.00;157013.97;4969816;28;20040;-76
2022/08/18 00:29:52;;;;;;;6.72;5.90;;;;;;;17.92;100.00;157021.72;4985918;28;20041;-77
2022/08/18 00:32:25;;;;;;;8.13;6.68;;;;;;;17.88;100.00;157012.69;5002269;28;20040;-74
2022/08/18 00:34:54;;;;;;;10.43;6.80;;;;;;;17.92;100.00;157023.00;4985725;28;20052;-75
2022/08/18 00:37:21;;;;;;;10.57;7.30;;;;;;;17.95;100.00;157029.41;5015473;28;20034;-76
2022/08/18 00:39:50;;;;;;;7.82;6.95;;;;;;;17.92;100.00;157023.00;5020261;28;20030;-75
2022/08/18 00:42:25;;;;;;;8.77;7.85;;;;;;;17.83;100.00;157001.00;5002847;28;20481;-73
2022/08/18 00:44:51;;;;;;;9.88;8.52;;;;;;;17.86;100.00;157008.81;4990530;28;20046;-76
2022/08/18 00:47:17;;;;;;;9.07;8.18;;;;;;;17.89;100.00;157015.25;5001439;28;20411;-77
2022/08/18 00:49:47;;;;;;;11.32;8.55;;;;;;;17.81;100.00;156995.88;4989875;28;20483;-75
2022/08/18 00:52:15;;;;;;;10.80;9.70;;;;;;;17.77;100.00;156985.56;5030307;28;20128;-75
2022/08/18 00:54:44;;;;;;;11.75;9.70;;;;;;;17.73;100.00;156975.28;5006037;28;20104;-75
2022/08/18 00:57:11;;;;;;;15.32;10.40;;;;;;;17.70;100.00;156967.53;5004047;28;20033;-76
2022/08/18 01:00:08;;;;;;;11.32;9.40;;;;;;;17.66;100.00;156958.50;4997434;28;20041;-76
2022/08/18 01:02:41;;;;;;;10.25;9.18;;;;;;;17.65;100.00;156954.63;5014513;28;20070;-75
2022/08/18 01:05:17;;;;;;;10.95;9.80;;;;;;;17.57;100.00;156934.03;5005124;28;20073;-77
2022/08/18 01:07:45;;;;;;;11.63;9.27;;;;;;;17.53;100.00;156925.00;4988652;28;20037;-76
2022/08/18 01:10:17;;;;;;;11.40;9.32;;;;;;;17.50;100.00;156917.31;5005609;28;20037;-77
2022/08/18 01:12:49;;;;;;;11.40;9.57;;;;;;;17.48;100.00;156912.16;5034160;28;20035;-77
2022/08/18 01:15:18;;;;;;;13.13;9.80;;;;;;;17.55;100.00;156930.16;4968471;28;20069;-76
2022/08/18 01:23:22;;;;;;;11.82;10.63;;;;;;;17.45;100.00;156905.69;5001353;28;20038;-76
2022/08/18 01:26:03;;;;;;;12.30;11.00;;;;;;;17.43;100.00;156900.53;5004035;28;20517;-75
2022/08/18 01:28:30;;;;;;;13.18;11.40;;;;;;;17.46;100.00;156908.28;4987727;28;20040;-76
2022/08/18 01:30:57;;;;;;;12.98;10.93;;;;;;;17.43;100.00;156899.25;5005803;28;20030;-77
2022/08/18 01:33:35;;;;;;;17.70;11.50;;;;;;;17.42;100.00;156897.97;4970628;28;20224;-78
2022/08/18 01:36:22;;;;;;;14.18;11.65;;;;;;;17.38;100.00;156887.63;4984152;28;20117;-77
2022/08/18 01:38:51;;;;;;;14.43;11.00;;;;;;;17.38;100.00;156887.63;5020217;28;20081;-77
2022/08/18 01:41:18;;;;;;;15.32;12.52;;;;;;;17.32;100.00;156872.19;5002539;28;20924;-77
2022/08/18 01:43:45;;;;;;;14.23;11.27;;;;;;;17.28;100.00;156863.16;5004399;28;20418;-76
2022/08/18 01:46:11;;;;;;;13.80;12.30;;;;;;;17.26;100.00;156858.03;4987995;28;20042;-75
2022/08/18 01:48:38;;;;;;;12.55;10.90;;;;;;;17.23;100.00;156850.28;5000807;28;20368;-76
2022/08/18 01:51:07;;;;;;;16.70;12.60;;;;;;;17.22;100.00;156846.44;5003231;28;20080;-76
2022/08/18 01:53:33;;;;;;;13.05;11.85;;;;;;;17.16;100.00;156830.97;5018926;28;20109;-76
2022/08/18 01:55:59;;;;;;;13.80;12.20;;;;;;;17.10;100.00;156818.13;4999281;28;20025;-76
2022/08/18 01:58:28;;;;;;;14.02;12.63;;;;;;;17.04;100.00;156801.34;4988764;28;20034;-76
2022/08/18 02:00:57;;;;;;;15.80;13.10;;;;;;;17.06;100.00;156807.78;4986111;28;20125;-77
2022/08/18 02:03:26;;;;;;;14.57;13.07;;;;;;;17.02;100.00;156797.47;4980737;28;20125;-77
2022/08/18 02:05:58;;;;;;;18.45;12.50;;;;;;;17.02;100.00;156796.19;4988095;28;20115;-77
2022/08/18 02:08:28;;;;;;;14.68;12.18;;;;;;;16.98;100.00;156787.19;5032452;28;20120;-76
2022/08/18 02:10:57;;;;;;;18.02;12.57;;;;;;;16.98;100.00;156787.19;5042869;28;20034;-76
2022/08/18 02:13:22;;;;;;;15.13;11.88;;;;;;;16.89;100.00;156764.00;5007717;28;20104;-77
2022/08/18 02:15:48;;;;;;;15.82;12.13;;;;;;;16.85;100.00;156753.69;4997386;28;20384;-77
2022/08/18 02:18:18;;;;;;;18.42;12.05;;;;;;;16.88;100.00;156762.72;5021015;28;20057;-76
2022/08/18 02:20:44;;;;;;;14.93;12.43;;;;;;;16.86;100.00;156757.56;5008726;28;20045;-76
2022/08/18 02:23:10;;;;;;;19.38;13.30;;;;;;;16.88;100.00;156761.44;5011190;28;20038;-76
2022/08/18 02:25:37;;;;;;;16.10;14.45;;;;;;;16.94;100.00;156776.88;5019724;28;20037;-77
2022/08/18 02:28:04;;;;;;;17.45;14.73;;;;;;;16.95;100.00;156779.44;4992082;28;20034;-77
2022/08/18 02:30:32;;;;;;;20.58;15.27;;;;;;;16.97;100.00;156784.63;4988756;28;20125;-76
2022/08/18 02:32:58;;;;;;;17.45;14.93;;;;;;;17.03;100.00;156800.06;4993581;28;20041;-77
2022/08/18 02:35:24;;;;;;;18.77;14.50;;;;;;;17.06;100.00;156806.50;4979850;28;20045;-77
2022/08/18 02:37:50;;;;;;;16.13;14.43;;;;;;;16.99;100.00;156789.78;5021167;28;20708;-76
2022/08/18 02:40:17;;;;;;;15.93;14.20;;;;;;;17.04;100.00;156801.34;4989519;28;20057;-75
2022/08/18 02:42:44;;;;;;;15.95;14.35;;;;;;;17.02;100.00;156797.47;5023737;28;20042;-76
2022/08/18 02:45:12;;;;;;;17.33;14.68;;;;;;;16.93;100.00;156774.28;4990719;28;20068;-76
2022/08/18 02:47:40;;;;;;;15.65;13.25;;;;;;;16.97;100.00;156784.63;5002726;28;20042;-77
2022/08/18 02:50:06;;;;;;;14.98;13.13;;;;;;;16.93;100.00;156775.63;5021632;28;20805;-77
2022/08/18 02:52:34;;;;;;;14.43;12.90;;;;;;;16.89;100.00;156764.00;4989167;28;20518;-76
2022/08/18 02:55:00;;;;;;;16.73;12.57;;;;;;;16.88;100.00;156762.72;5007542;28;20529;-76
2022/08/18 02:57:27;;;;;;;17.38;13.57;;;;;;;16.88;100.00;156761.44;4979828;28;20045;-77
2022/08/18 02:59:53;;;;;;;14.77;13.20;;;;;;;16.83;100.00;156748.56;5010656;28;20034;-76
2022/08/18 03:02:19;;;;;;;13.88;12.40;;;;;;;16.79;100.00;156738.22;5019282;28;20034;-77
2022/08/18 03:04:45;;;;;;;13.95;12.45;;;;;;;16.83;100.00;156748.56;5010325;28;20048;-76
2022/08/18 03:07:13;;;;;;;13.98;12.50;;;;;;;16.73;100.00;156725.31;5009004;28;20045;-77
2022/08/18 03:09:40;;;;;;;16.50;12.90;;;;;;;16.72;100.00;156722.72;5018716;28;20488;-79
2022/08/18 03:12:08;;;;;;;13.52;12.13;;;;;;;16.71;100.00;156718.91;4992401;28;20042;-78
2022/08/18 03:14:35;;;;;;;15.10;11.82;;;;;;;16.68;100.00;156711.16;4998854;28;20125;-77
2022/08/18 03:17:04;;;;;;;14.32;12.77;;;;;;;16.64;100.00;156702.13;5020846;28;20066;-77
2022/08/18 03:19:31;;;;;;;14.93;12.30;;;;;;;16.60;100.00;156691.84;5002458;28;20046;-77
2022/08/18 03:21:58;;;;;;;15.98;12.77;;;;;;;16.62;100.00;156695.72;5003822;28;20034;-77
2022/08/18 03:24:25;;;;;;;16.75;13.43;;;;;;;16.55;100.00;156678.94;5007381;28;20046;-78
2022/08/18 03:26:52;;;;;;;14.75;12.57;;;;;;;16.51;100.00;156669.94;5008369;28;20495;-76
2022/08/18 03:29:19;;;;;;;14.57;12.70;;;;;;;16.52;100.00;156672.53;5033945;28;20487;-78
2022/08/18 03:31:47;;;;;;;16.25;12.63;;;;;;;16.55;100.00;156678.94;5009617;28;20054;-78
2022/08/18 03:34:18;;;;;;;13.60;12.30;;;;;;;16.51;100.00;156669.94;5006015;28;20496;-77
2022/08/18 03:36:44;;;;;;;14.20;12.70;;;;;;;16.50;100.00;156667.38;4984935;28;20042;-76
2022/08/18 03:39:11;;;;;;;15.05;13.45;;;;;;;16.45;100.00;156653.22;4995256;28;20033;-77
2022/08/18 03:41:40;;;;;;;15.95;13.93;;;;;;;16.41;100.00;156644.22;5005955;28;20475;-77
2022/08/18 03:44:06;;;;;;;15.30;13.65;;;;;;;16.38;100.00;156636.47;4988588;28;20559;-76
2022/08/18 03:46:33;;;;;;;22.30;13.90;;;;;;;16.30;100.00;156617.16;5003824;28;20042;-76
2022/08/18 03:49:00;;;;;;;15.50;13.90;;;;;;;16.31;100.00;156618.44;5005515;28;20528;-76
2022/08/18 03:51:30;;;;;;;16.30;14.60;;;;;;;16.28;100.00;156610.75;4987957;28;20476;-76
2022/08/18 03:53:59;;;;;;;16.55;14.13;;;;;;;16.25;100.00;156603.00;5008092;28;20042;-77
2022/08/18 03:56:31;;;;;;;16.55;14.82;;;;;;;16.32;100.00;156621.03;4977562;28;20075;-76
2022/08/18 03:59:00;;;;;;;17.25;15.55;;;;;;;16.38;100.00;156635.19;4988764;28;20031;-77
2022/08/18 04:01:31;;;;;;;21.02;13.95;;;;;;;16.29;100.00;156614.59;5033203;28;20044;-79
2022/08/18 04:04:01;;;;;;;20.20;14.70;;;;;;;16.34;100.00;156627.44;5016841;28;20564;-77
2022/08/18 04:06:33;;;;;;;22.20;17.08;;;;;;;16.31;100.00;156619.75;4988108;28;20049;-76
2022/08/18 04:09:03;;;;;;;16.65;14.90;;;;;;;16.26;100.00;156605.59;5007497;28;20026;-77
2022/08/18 04:11:31;;;;;;;17.92;16.08;;;;;;;16.24;100.00;156601.72;5024375;28;20077;-76
2022/08/18 04:13:57;;;;;;;19.77;16.52;;;;;;;16.26;100.00;156605.59;4999696;28;20033;-77
2022/08/18 04:16:24;;;;;;;19.17;15.52;;;;;;;16.28;100.00;156612.00;5019061;28;20113;-78
2022/08/18 04:18:52;;;;;;;17.98;16.17;;;;;;;16.28;100.00;156610.75;5020000;28;20046;-77
2022/08/18 04:21:18;;;;;;;17.83;15.98;;;;;;;16.25;100.00;156604.28;4988108;28;20041;-77
2022/08/18 04:23:44;;;;;;;17.77;15.88;;;;;;;16.27;100.00;156608.16;5005448;28;20034;-76
2022/08/18 04:26:11;;;;;;;17.30;15.52;;;;;;;16.27;100.00;156609.41;4984398;28;20743;-77
2022/08/18 04:28:37;;;;;;;17.27;15.48;;;;;;;16.29;100.00;156613.28;5038931;28;20038;-78
2022/08/18 04:31:10;;;;;;;22.05;15.90;;;;;;;16.32;100.00;156621.03;5006329;28;20611;-77
2022/08/18 04:33:36;;;;;;;16.92;15.20;;;;;;;16.32;100.00;156622.31;5007649;28;20809;-78
2022/08/18 04:36:14;;;;;;;18.88;15.35;;;;;;;16.41;100.00;156642.94;5018017;28;20042;-78
2022/08/18 04:38:41;;;;;;;19.10;15.80;;;;;;;16.45;100.00;156653.22;5021380;28;20488;-78
2022/08/18 04:41:08;;;;;;;18.02;16.30;;;;;;;16.51;100.00;156669.94;5006505;28;20037;-77
2022/08/18 04:43:33;;;;;;;19.73;15.43;;;;;;;16.57;100.00;156682.81;5008087;28;20057;-78
2022/08/18 04:46:02;;;;;;;18.05;15.98;;;;;;;16.60;100.00;156690.56;4977118;28;20524;-79
2022/08/18 04:48:32;;;;;;;18.35;16.20;;;;;;;16.59;100.00;156689.25;4989943;28;20368;-78
2022/08/18 04:51:06;;;;;;;21.42;16.98;;;;;;;16.68;100.00;156711.16;5001775;28;20098;-78
2022/08/18 04:53:46;;;;;;;25.38;17.48;;;;;;;16.78;100.00;156736.88;5024467;28;20069;-78
2022/08/18 04:56:33;;;;;;;18.23;16.35;;;;;;;16.87;100.00;156758.84;5008549;28;20034;-77
2022/08/18 04:59:06;;;;;;;22.38;17.02;;;;;;;16.88;100.00;156762.72;4996863;28;20499;-78
2022/08/18 05:01:36;;;;;;;21.25;17.20;;;;;;;16.92;100.00;156773.00;5032115;28;20057;-77
2022/08/18 05:04:02;;;;;;;20.17;17.88;;;;;;;17.04;100.00;156801.34;5014679;28;20042;-78
2022/08/18 05:06:29;;;;;;;22.10;17.77;;;;;;;17.08;100.00;156812.97;5013992;28;20050;-78
2022/08/18 05:08:58;;;;;;;19.13;17.17;;;;;;;17.12;100.00;156823.25;4995498;28;20030;-79
2022/08/18 05:11:27;;;;;;;20.83;16.48;;;;;;;17.17;100.00;156833.56;4996481;28;20145;-79
2022/08/18 05:13:56;;;;;;;19.75;16.15;;;;;;;17.21;100.00;156843.84;5005192;28;20042;-78
2022/08/18 05:16:23;;;;;;;17.48;15.13;;;;;;;17.21;100.00;156845.13;4989554;28;20046;-78
2022/08/18 05:18:52;;;;;;;20.02;15.45;;;;;;;17.25;100.00;156854.16;5005557;28;20083;-76
2022/08/18 05:21:18;;;;;;;14.48;13.15;;;;;;;17.25;100.00;156855.47;4997364;28;20156;-77
2022/08/18 05:23:46;;;;;;;16.35;14.65;;;;;;;17.35;100.00;156879.94;5005325;28;20878;-78
2022/08/18 05:26:14;;;;;;;16.38;14.13;;;;;;;17.42;100.00;156897.97;4990207;28;20026;-77
2022/08/18 05:28:41;;;;;;;15.32;13.80;;;;;;;17.49;100.00;156914.69;5006652;28;20068;-78
2022/08/18 05:31:18;;;;;;;14.68;13.27;;;;;;;17.54;100.00;156926.28;4990122;28;20062;-78
2022/08/18 05:33:45;;;;;;;15.00;13.43;;;;;;;17.60;100.00;156943.03;4985275;28;20053;-77
2022/08/18 05:36:14;;;;;;;16.35;14.75;;;;;;;17.74;100.00;156977.81;4972121;28;20034;-77
2022/08/18 05:39:05;;;;;;;18.05;16.08;;;;;;;17.89;100.00;157016.56;5008451;28;20061;-77
2022/08/18 05:41:40;;;;;;;22.35;17.20;;;;;;;17.99;100.00;157039.72;4992200;28;20033;-77
2022/08/18 05:44:11;;;;;;;20.23;16.52;;;;;;;18.13;100.00;157075.81;4979870;28;20037;-77
2022/08/18 05:46:53;;;;;;;18.38;16.00;;;;;;;18.18;100.00;157088.72;5018908;28;20496;-77
2022/08/18 05:49:21;;;;;;;19.85;16.05;;;;;;;18.18;100.00;157088.72;4988961;28;20037;-77
2022/08/18 05:51:55;;;;;;;24.90;17.08;;;;;;;18.18;100.00;157088.72;4987296;28;20053;-77
2022/08/18 05:57:16;;;;;;;23.02;16.25;;;;;;;18.14;100.00;157077.09;5027522;28;20065;-77
2022/08/18 05:59:43;;;;;;;20.02;15.32;;;;;;;18.11;100.00;157070.66;4991422;28;20037;-78
2022/08/18 06:02:36;;;;;;;18.73;14.77;;;;;;;18.08;100.00;157064.25;5005393;28;20038;-76
2022/08/18 06:05:04;;;;;;;;;;;;;;;18.05;100.00;157056.50;5019411;28;20033;-77
2022/08/18 06:07:35;;;;;;;17.50;14.63;;;;;;;18.02;100.00;157048.75;4999597;28;20015;-77
2022/08/18 06:10:04;;;;;;;19.30;15.77;;;;;;;18.03;100.00;157050.06;4991078;28;20030;-77
2022/08/18 06:12:34;;;;;;;18.42;15.35;;;;;;;18.04;100.00;157053.88;4996488;28;20067;-77
2022/08/18 06:15:14;;;;;;;16.98;15.20;;;;;;;18.02;100.00;157047.47;5003218;28;20065;-78
2022/08/18 06:18:06;;;;;;;16.23;14.52;;;;;;;18.03;100.00;157051.34;5001072;28;20089;-77
2022/08/18 06:20:52;;;;;;;21.27;17.40;;;;;;;18.09;100.00;157066.78;5004996;28;20419;-76
2022/08/18 06:23:45;;;;;;;20.92;16.70;;;;;;;18.18;100.00;157088.72;4985810;28;20038;-77
2022/08/18 06:26:38;;;;;;;23.42;17.42;;;;;;;18.36;100.00;157133.81;4987578;28;20037;-76
2022/08/18 06:29:29;;;;;;;19.63;17.52;;;;;;;18.54;100.00;157177.66;5004698;28;20042;-77
2022/08/18 06:32:31;;;;;;;18.40;15.50;;;;;;;18.72;100.00;157224.03;5016039;28;20026;-77
2022/08/18 06:35:17;;;;;;;18.33;15.98;;;;;;;18.96;100.00;157284.69;5002864;28;20041;-79
2022/08/18 06:41:13;;;;;;;15.73;14.07;;;;;;;19.30;100.00;157369.78;5002080;28;20049;-76
2022/08/18 06:43:57;;;;;;;22.60;15.43;;;;;;;19.40;100.00;157394.28;5004703;28;20057;-78
2022/08/18 06:46:40;;;;;;;18.08;14.93;;;;;;;19.47;100.00;157411.06;5008762;28;20163;-76
2022/08/18 06:49:09;;;;;;;18.77;14.65;;;;;;;19.59;100.00;157443.31;4966732;28;20050;-77
2022/08/18 06:51:36;;;;;;;19.27;15.93;;;;;;;19.63;100.00;157453.63;4988371;28;20380;-76
2022/08/18 06:54:04;;;;;;;23.17;19.05;;;;;;;19.66;100.00;157460.06;4979774;28;20046;-76
2022/08/18 06:56:39;;;;;;;33.78;25.20;;;;;;;19.55;100.00;157433.00;5007141;28;20041;-75
2022/08/18 06:59:20;;;;;;;37.05;30.17;;;;;;;19.38;100.00;157389.13;5010299;28;20128;-76
2022/08/18 07:01:50;;;;;;;42.28;31.45;;;;;;;19.18;100.00;157338.88;5002684;28;20503;-76
2022/08/18 07:04:56;;;;;;;46.65;33.15;;;;;;;19.08;100.00;157314.38;5007253;28;20484;-75
2022/08/18 07:07:35;;;;;;;56.30;36.13;;;;;;;19.05;100.00;157307.91;5008770;28;20033;-77
2022/08/18 07:10:05;;;;;;;58.45;37.03;;;;;;;19.04;100.00;157305.34;5008997;28;20033;-76
2022/08/18 07:12:31;;;;;;;58.25;37.90;;;;;;;19.03;100.00;157302.75;5008794;28;20053;-77
2022/08/18 07:15:02;;;;;;;71.53;42.00;;;;;;;19.02;100.00;157300.19;5001431;28;20487;-78
2022/08/18 07:17:30;;;;;;;73.90;40.95;;;;;;;19.02;100.00;157300.19;5005655;28;20110;-78
2022/08/18 07:20:07;;;;;;;72.45;42.17;;;;;;;18.96;100.00;157284.69;5005138;28;20061;-77
2022/08/18 07:23:02;;;;;;;62.53;38.22;;;;;;;18.96;100.00;157284.69;4997494;28;20069;-76
2022/08/18 07:25:37;;;;;;;69.55;37.78;;;;;;;18.94;100.00;157278.25;5018515;28;20077;-76
2022/08/18 07:28:03;;;;;;;56.15;34.75;;;;;;;18.88;100.00;157264.06;5003155;28;20096;-76
2022/08/18 07:30:36;;;;;;;55.88;35.10;;;;;;;18.80;100.00;157244.75;5007117;28;20045;-75
2022/08/18 07:33:20;;;;;;;57.90;35.25;;;;;;;18.82;100.00;157249.88;5006694;28;20116;-76
2022/08/18 07:35:57;;;;;;;59.38;35.35;;;;;;;18.75;100.00;157231.78;5006282;28;20108;-77
2022/08/18 07:38:41;;;;;;;58.55;37.55;;;;;;;18.78;100.00;157239.53;5028240;28;20046;-76
2022/08/18 07:41:19;;;;;;;60.72;37.17;;;;;;;18.85;100.00;157257.63;5006091;28;20029;-77
2022/08/18 07:43:50;;;;;;;54.03;35.72;;;;;;;18.83;100.00;157252.44;5018399;28;20048;-76
2022/08/18 07:46:22;;;;;;;53.03;34.58;;;;;;;18.88;100.00;157262.78;5005339;28;20136;-76
2022/08/18 07:48:48;;;;;;;58.45;34.45;;;;;;;18.85;100.00;157257.63;5007572;28;20044;-76
2022/08/18 07:51:23;;;;;;;56.65;34.75;;;;;;;18.85;100.00;157256.31;5008583;28;20045;-76
2022/08/18 07:54:07;;;;;;;66.65;37.00;;;;;;;18.81;100.00;157246.00;4998504;28;20038;-75
2022/08/18 07:56:57;;;;;;;63.70;36.45;;;;;;;18.88;100.00;157262.78;5001206;28;20039;-77
2022/08/18 08:00:13;;;;;;;71.25;37.83;;;;;;;18.87;100.00;157261.47;5002130;28;20041;-76
2022/08/18 08:02:47;;;;;;;68.53;37.20;;;;;;;18.95;100.00;157280.81;5002983;28;20115;-76
2022/08/18 08:05:33;;;;;;;64.18;34.75;;;;;;;18.98;100.00;157289.84;4973095;28;20037;-78
2022/08/18 08:08:10;;;;;;;62.15;34.47;;;;;;;19.03;100.00;157302.75;5001600;28;20484;-76
2022/08/18 08:10:40;;;;;;;58.75;33.78;;;;;;;18.99;100.00;157292.44;5017979;28;20045;-76
2022/08/18 08:13:19;;;;;;;58.13;33.78;;;;;;;19.02;100.00;157298.88;4973661;28;20050;-77
2022/08/18 08:16:00;;;;;;;58.03;33.83;;;;;;;19.05;100.00;157307.91;5020659;28;20038;-76
2022/08/18 08:18:42;;;;;;;55.67;32.42;;;;;;;19.06;100.00;157309.19;5020222;28;20033;-77
2022/08/18 08:21:20;;;;;;;59.15;32.75;;;;;;;19.15;100.00;157332.38;5036921;28;20034;-76
2022/08/18 08:23:54;;;;;;;56.17;33.03;;;;;;;19.16;100.00;157335.00;5004666;28;20050;-77
2022/08/18 08:26:33;;;;;;;57.08;33.45;;;;;;;19.20;100.00;157344.03;4985503;28;20125;-77
2022/08/18 08:29:35;;;;;;;51.53;32.00;;;;;;;19.28;100.00;157363.34;5022964;28;20454;-77
2022/08/18 08:32:05;;;;;;;51.97;31.00;;;;;;;19.32;100.00;157374.94;4961675;28;20129;-78
2022/08/18 08:34:48;;;;;;;54.72;31.42;;;;;;;19.38;100.00;157390.47;5008568;28;20026;-77
2022/08/18 08:37:26;;;;;;;49.75;29.65;;;;;;;19.44;100.00;157405.91;4994604;28;20100;-77
2022/08/18 08:40:01;;;;;;;51.05;29.40;;;;;;;19.49;100.00;157417.50;5009015;28;20033;-77
2022/08/18 08:42:44;;;;;;;45.13;28.13;;;;;;;19.62;100.00;157449.75;5016526;28;20082;-77
2022/08/18 08:45:36;;;;;;;39.17;25.30;;;;;;;19.73;100.00;157478.19;5015165;28;20100;-78
2022/08/18 08:48:08;;;;;;;44.53;27.25;;;;;;;19.77;100.00;157487.22;4984657;28;20125;-78
2022/08/18 08:50:52;;;;;;;46.80;27.30;;;;;;;19.83;100.00;157504.00;4994382;28;20046;-77
2022/08/18 08:53:26;;;;;;;39.08;25.15;;;;;;;19.90;100.00;157520.75;5005489;28;20052;-77
2022/08/18 08:55:57;;;;;;;40.10;25.42;;;;;;;19.97;100.00;157537.53;5005551;28;20037;-77
2022/08/18 08:58:47;;;;;;;38.63;24.90;;;;;;;20.05;100.00;157556.88;4977577;28;20071;-77
2022/08/18 09:01:33;;;;;;;35.55;24.33;;;;;;;20.15;100.00;157582.66;4990591;28;20037;-78
2022/08/18 09:04:29;;;;;;;39.17;25.13;;;;;;;20.28;100.00;157616.22;5013132;28;20042;-78
2022/08/18 09:07:21;;;;;;;36.78;24.90;;;;;;;20.31;100.00;157622.69;5008265;28;20040;-77
2022/08/18 09:10:08;;;;;;;34.13;24.27;;;;;;;20.43;100.00;157654.91;5004570;28;20116;-77
2022/08/18 09:13:12;;;;;;;35.67;25.75;;;;;;;20.57;100.00;157688.50;5022814;28;20119;-77
2022/08/18 09:15:47;;;;;;;35.28;23.77;;;;;;;20.71;100.00;157724.66;4984432;28;20043;-76
2022/08/18 09:18:49;;;;;;;33.60;22.83;;;;;;;20.82;100.00;157751.78;4999666;28;20710;-75
2022/08/18 09:21:18;;;;;;;30.17;21.77;;;;;;;20.70;100.00;157722.09;4999238;28;20088;-76
2022/08/18 09:23:47;;;;;;;28.60;21.23;;;;;;;20.86;100.00;157760.81;5003609;28;20432;-76
2022/08/18 09:26:25;;;;;;;29.17;19.30;;;;;;;20.94;100.00;157782.72;5004759;28;20499;-76
2022/08/18 09:28:56;;;;;;;33.92;21.02;;;;;;;21.06;100.00;157811.13;5017476;28;20184;-75
2022/08/18 09:31:26;;;;;;;31.48;22.63;;;;;;;21.03;100.00;157803.41;4986685;28;20522;-76
2022/08/18 09:34:03;;;;;;;28.27;20.60;;;;;;;21.07;100.00;157815.00;5039552;28;20066;-77
2022/08/18 09:36:53;;;;;;;31.50;22.25;;;;;;;21.02;100.00;157802.13;5019150;28;20093;-77
2022/08/18 09:42:58;;;;;;;30.98;21.75;;;;;;;21.12;100.00;157826.66;5001094;28;20034;-75
2022/08/18 09:45:30;;;;;;;27.63;20.00;;;;;;;21.04;100.00;157807.28;5032503;28;20048;-76
2022/08/18 09:47:56;;;;;;;31.92;21.60;;;;;;;21.13;100.00;157829.22;5002115;28;20068;-77
2022/08/18 09:50:26;;;;;;;28.58;20.45;;;;;;;21.21;100.00;157849.88;5022450;28;20038;-76
2022/08/18 09:53:13;;;;;;;31.85;22.92;;;;;;;21.33;100.00;157879.56;4996959;28;20030;-77
2022/08/18 09:55:50;;;;;;;33.65;22.52;;;;;;;21.44;100.00;157908.03;5018492;28;20378;-77
2022/08/18 09:58:49;;;;;;;33.83;26.10;;;;;;;21.56;100.00;157937.69;4990174;28;20100;-76
2022/08/18 10:01:35;;;;;;;32.97;25.55;;;;;;;21.59;100.00;157945.47;4996306;28;20072;-76
2022/08/18 10:04:25;;;;;;;30.27;24.73;;;;;;;21.74;100.00;157982.91;5004163;28;20399;-77
2022/08/18 10:06:52;;;;;;;33.75;24.88;;;;;;;21.87;100.00;158015.16;5019446;28;20456;-76
2022/08/18 10:09:20;;;;;;;33.03;23.27;;;;;;;22.08;100.00;158069.44;4974540;28;20054;-77
2022/08/18 10:12:23;;;;;;;31.45;23.48;;;;;;;22.16;100.00;158090.06;4997652;28;20052;-76
2022/08/18 10:15:07;;;;;;;31.10;21.58;;;;;;;22.31;100.00;158127.59;4989712;28;20438;-77
2022/08/18 10:18:06;;;;;;;31.23;21.85;;;;;;;22.37;100.00;158140.50;5015158;28;20398;-78
2022/08/18 10:20:52;;;;;;;28.30;20.90;;;;;;;22.40;100.00;158149.56;5005177;28;20052;-77
2022/08/18 10:23:46;;;;;;;27.60;19.05;;;;;;;22.37;100.00;158141.78;5002373;28;20065;-76
2022/08/18 10:26:30;;;;;;;29.27;19.40;;;;;;;22.37;100.00;158140.50;5031223;28;20046;-76
2022/08/18 10:29:02;;;;;;;22.77;17.38;;;;;;;22.40;100.00;158149.56;5003398;28;20100;-77
2022/08/18 10:31:30;;;;;;;25.27;17.92;;;;;;;22.77;100.00;158242.53;4996687;28;20084;-76
2022/08/18 10:34:10;;;;;;;28.67;18.67;;;;;;;23.35;100.00;158388.59;5007031;28;20277;-77
2022/08/18 10:36:57;;;;;;;25.80;19.45;;;;;;;23.98;100.00;158546.34;4990952;28;20042;-76
2022/08/18 10:39:54;;;;;;;29.00;20.88;;;;;;;24.12;99.12;158582.56;4997299;28;20037;-77
2022/08/18 10:42:32;;;;;;;26.42;18.83;;;;;;;24.05;98.30;158564.44;5026112;28;20095;-76
2022/08/18 10:45:24;;;;;;;23.90;18.85;;;;;;;24.05;97.17;158565.78;5011710;28;20064;-77
2022/08/18 10:48:14;;;;;;;23.63;17.23;;;;;;;23.97;99.41;158543.78;5006079;28;20706;-76
2022/08/18 10:50:49;;;;;;;25.23;17.88;;;;;;;23.89;99.76;158525.66;5008179;28;20276;-77
2022/08/18 10:53:29;;;;;;;24.05;15.98;;;;;;;23.88;98.99;158521.78;4981860;28;20558;-77
2022/08/18 10:56:18;;;;;;;22.50;16.73;;;;;;;24.00;98.17;158551.56;5010564;28;20387;-77
2022/08/18 10:58:59;;;;;;;24.60;19.02;;;;;;;24.10;95.77;158577.38;4993384;28;20133;-77
2022/08/18 11:01:58;;;;;;;21.30;16.75;;;;;;;24.16;98.20;158591.59;4979230;28;20463;-77
2022/08/18 11:04:31;;;;;;;24.38;17.38;;;;;;;24.22;98.89;158608.44;4994637;28;20046;-78
2022/08/18 11:07:13;;;;;;;21.67;16.83;;;;;;;24.21;97.38;158604.53;5038585;28;20057;-77
2022/08/18 11:09:41;;;;;;;22.35;16.98;;;;;;;24.28;100.00;158623.94;5004396;28;20053;-75
2022/08/18 11:12:11;;;;;;;21.25;15.63;;;;;;;24.35;97.49;158639.44;5008383;28;20053;-77
2022/08/18 11:15:07;;;;;;;20.92;16.83;;;;;;;24.36;96.49;158643.31;5034595;28;20109;-77
2022/08/18 11:17:53;;;;;;;19.50;14.43;;;;;;;24.46;96.18;158669.16;4984833;28;20053;-78
2022/08/18 11:20:22;;;;;;;19.33;15.20;;;;;;;24.33;96.79;158634.25;5005680;28;20061;-77
2022/08/18 11:22:54;;;;;;;18.13;15.10;;;;;;;24.07;95.67;158569.59;5009859;28;20112;-78
2022/08/18 11:25:40;;;;;;;20.67;14.73;;;;;;;23.96;99.80;158542.50;5018781;28;20161;-78
2022/08/18 11:28:18;;;;;;;16.20;13.32;;;;;;;24.09;96.91;158574.78;5011107;28;20037;-79
2022/08/18 11:30:49;;;;;;;14.80;11.50;;;;;;;24.30;96.36;158627.81;5023673;28;20037;-78
2022/08/18 11:33:17;;;;;;;20.38;11.75;;;;;;;24.41;95.67;158656.28;5017255;28;20037;-77
2022/08/18 11:35:50;;;;;;;15.27;11.32;;;;;;;24.52;93.24;158682.16;5010664;28;20034;-78
2022/08/18 11:38:18;;;;;;;15.35;10.48;;;;;;;25.08;90.61;158824.41;4986892;28;20044;-77
2022/08/18 11:41:17;;;;;;;13.30;10.40;;;;;;;25.75;86.47;158993.94;5020588;28;20045;-77
2022/08/18 11:43:44;;;;;;;15.20;11.30;;;;;;;26.18;81.57;159102.69;5007984;28;20038;-77
2022/08/18 11:46:34;;;;;;;11.00;9.90;;;;;;;26.51;83.00;159184.22;5009282;28;20109;-77
2022/08/18 11:49:14;;;;;;;15.30;10.63;;;;;;;26.16;82.12;159097.50;5026023;28;20036;-76
2022/08/18 11:51:59;;;;;;;15.02;11.40;;;;;;;25.77;83.75;158997.84;5036862;28;20037;-77